Time;durP1;ratioP1;P1;durP2;ratioP2;P2;SDS_P1;SDS_P2;PMS_P1;PMS_P2;Temp;Humidity;BMP_temperature;BMP_pressure;BME280_temperature;BME280_humidity;BME280_pressure;Samples;Min_cycle;Max_cycle;Signal;HPM_P1;HPM_P2
2022/06/07 00:01:15;;;;;;;1.50;1.40;;;15.10;99.90;15.30;100452.00;;;;4992127;28;93627;-69
2022/06/07 00:03:41;;;;;;;2.22;2.03;;;15.20;99.90;15.30;100450.00;;;;4991551;28;101116;-69
2022/06/07 00:06:07;;;;;;;2.80;1.98;;;15.20;99.90;15.30;100461.00;;;;4974880;28;92814;-68
2022/06/07 00:08:33;;;;;;;1.40;1.30;;;15.20;99.90;15.30;100452.00;;;;4992363;28;92430;-69
2022/06/07 00:10:59;;;;;;;2.58;1.67;;;15.20;99.90;15.30;100462.00;;;;4991487;28;121975;-69
2022/06/07 00:13:25;;;;;;;1.70;1.60;;;15.20;99.90;15.30;100456.00;;;;4991508;28;110329;-69
2022/06/07 00:15:51;;;;;;;1.40;1.30;;;15.20;99.90;15.40;100443.00;;;;4974715;28;92457;-69
2022/06/07 00:18:17;;;;;;;1.13;1.02;;;15.20;99.90;15.40;100440.00;;;;4992387;28;100189;-69
2022/06/07 00:20:44;;;;;;;2.13;1.63;;;15.20;99.90;15.40;100438.00;;;;4973913;28;93322;-69
2022/06/07 00:23:14;;;;;;;1.58;1.48;;;15.30;99.90;15.40;100438.00;;;;4992679;28;92625;-69
2022/06/07 00:25:44;;;;;;;2.08;1.33;;;15.30;99.90;15.50;100443.00;;;;5005985;28;93653;-69
2022/06/07 00:28:10;;;;;;;1.15;1.02;;;15.30;99.90;15.50;100424.00;;;;4991575;28;92414;-69
2022/06/07 00:30:36;;;;;;;1.67;1.55;;;15.40;99.90;15.50;100424.00;;;;4991633;28;121281;-69
2022/06/07 00:33:03;;;;;;;2.38;1.35;;;15.40;99.90;15.60;100410.00;;;;5007264;28;92100;-69
2022/06/07 00:35:28;;;;;;;1.55;1.45;;;15.40;99.90;15.60;100413.00;;;;4974210;28;92129;-68
2022/06/07 00:37:54;;;;;;;2.17;1.65;;;15.50;99.90;15.60;100402.00;;;;4973536;28;93829;-69
2022/06/07 00:40:20;;;;;;;1.90;1.30;;;15.50;99.90;15.70;100407.00;;;;4991112;28;122465;-69
2022/06/07 00:42:46;;;;;;;2.00;1.55;;;15.50;99.90;15.70;100402.00;;;;4992900;28;92859;-68
2022/06/07 00:45:19;;;;;;;2.53;1.65;;;15.50;99.90;15.70;100401.00;;;;5006504;28;108242;-69
2022/06/07 00:47:47;;;;;;;2.38;1.60;;;15.50;99.90;15.60;100402.00;;;;4990458;28;113102;-69
2022/06/07 00:50:42;;;;;;;1.92;1.58;;;15.50;99.90;15.50;100398.00;;;;4975695;28;93856;-68
2022/06/07 00:53:23;;;;;;;2.55;1.55;;;15.50;99.90;15.50;100397.00;;;;4976518;28;92240;-69
2022/06/07 00:55:50;;;;;;;2.15;1.55;;;15.40;99.90;15.40;100394.00;;;;4974626;28;92587;-70
2022/06/07 00:58:16;;;;;;;2.80;1.85;;;15.40;99.90;15.40;100402.00;;;;4990501;28;92840;-69
2022/06/07 01:00:43;;;;;;;1.95;1.75;;;15.30;99.90;15.40;100391.00;;;;4990112;28;95005;-69
2022/06/07 01:03:09;;;;;;;2.50;1.40;;;15.30;99.90;15.50;100398.00;;;;4990387;28;102012;-68
2022/06/07 01:05:35;;;;;;;2.42;1.77;;;15.30;99.90;15.50;100397.00;;;;4991450;28;108534;-69
2022/06/07 01:10:46;;;;;;;1.55;1.45;;;15.40;99.90;15.50;100395.00;;;;4988829;28;91866;-68
2022/06/07 01:13:21;;;;;;;1.27;1.17;;;15.30;99.90;15.40;100390.00;;;;4990975;28;92641;-69
2022/06/07 01:15:47;;;;;;;2.17;1.67;;;15.30;99.90;15.40;100391.00;;;;4973264;28;93618;-69
2022/06/07 01:18:14;;;;;;;2.55;2.17;;;15.40;99.90;15.40;100387.00;;;;5005795;28;92683;-69
2022/06/07 01:20:40;;;;;;;1.52;1.42;;;15.30;99.90;15.50;100385.00;;;;4991243;28;93928;-68
2022/06/07 01:23:07;;;;;;;1.40;1.30;;;15.40;99.90;15.50;100383.00;;;;4989789;28;110898;-69
2022/06/07 01:25:34;;;;;;;1.65;1.15;;;15.40;99.90;15.60;100378.00;;;;4992421;28;92451;-69
2022/06/07 01:28:03;;;;;;;2.40;1.60;;;15.40;99.90;15.60;100384.00;;;;4990004;28;93583;-69
2022/06/07 01:30:29;;;;;;;3.10;1.50;;;15.50;99.90;15.70;100382.00;;;;4991280;28;113368;-69
2022/06/07 01:32:55;;;;;;;2.10;1.60;;;15.50;99.90;15.70;100379.00;;;;4991237;28;91367;-68
2022/06/07 01:35:20;;;;;;;2.20;1.80;;;15.60;99.90;15.70;100376.00;;;;4990529;28;109521;-69
2022/06/07 01:37:46;;;;;;;1.45;1.27;;;15.60;99.90;15.70;100375.00;;;;4989131;28;121678;-68
2022/06/07 01:41:53;;;;;;;4.05;1.75;;;15.60;99.90;15.70;100379.00;;;;4991157;28;94552;-69
2022/06/07 01:42:58;;;;;;;2.42;1.67;;;15.60;99.90;15.80;100384.00;;;;4974831;28;91961;-69
2022/06/07 01:45:24;;;;;;;1.90;1.77;;;15.60;99.90;15.70;100381.00;;;;4991401;28;108460;-68
2022/06/07 01:47:49;;;;;;;3.50;2.10;;;15.60;99.90;15.70;100381.00;;;;4988688;28;94080;-69
2022/06/07 01:50:17;;;;;;;1.30;1.20;;;15.60;99.90;15.70;100382.00;;;;4993877;28;96251;-69
2022/06/07 01:52:42;;;;;;;2.20;1.45;;;15.60;99.90;15.70;100371.00;;;;4980403;28;92945;-69
2022/06/07 01:55:08;;;;;;;3.10;1.35;;;15.50;99.90;15.60;100367.00;;;;4990825;28;100418;-69
2022/06/07 01:57:34;;;;;;;2.03;1.55;;;15.50;99.90;15.60;100374.00;;;;4971978;28;91872;-69
2022/06/07 02:00:00;;;;;;;2.30;1.67;;;15.50;99.90;15.60;100371.00;;;;5005702;28;92504;-69
2022/06/07 02:02:27;;;;;;;1.98;1.40;;;15.50;99.90;15.60;100363.00;;;;5006715;28;92484;-69
2022/06/07 02:04:54;;;;;;;1.83;1.23;;;15.50;99.90;15.60;100363.00;;;;4990851;28;92992;-69
2022/06/07 02:07:20;;;;;;;1.95;1.77;;;15.50;99.90;15.60;100367.00;;;;4971043;28;92524;-69
2022/06/07 02:09:46;;;;;;;1.58;1.48;;;15.50;99.90;15.50;100375.00;;;;4989593;28;93394;-69
2022/06/07 02:12:12;;;;;;;3.65;2.00;;;15.40;99.90;15.50;100372.00;;;;4990631;28;92538;-68
2022/06/07 02:14:41;;;;;;;1.77;1.67;;;15.40;99.90;15.60;100362.00;;;;4991418;28;92387;-69
2022/06/07 02:17:08;;;;;;;1.60;1.50;;;15.50;99.90;15.60;100369.00;;;;4988389;28;95231;-69
2022/06/07 02:19:34;;;;;;;3.88;2.17;;;15.50;99.90;15.60;100376.00;;;;4991416;28;93081;-68
2022/06/07 02:22:00;;;;;;;1.67;1.25;;;15.50;99.90;15.60;100364.00;;;;4989988;28;91314;-69
2022/06/07 02:24:26;;;;;;;1.83;1.65;;;15.50;99.90;15.60;100362.00;;;;5005656;28;92044;-69
2022/06/07 02:26:57;;;;;;;2.50;1.70;;;15.50;99.90;15.60;100361.00;;;;4988357;28;92664;-68
2022/06/07 02:29:31;;;;;;;2.33;1.70;;;15.50;99.90;15.60;100359.00;;;;4970394;28;113106;-69
2022/06/07 02:32:20;;;;;;;2.03;1.75;;;15.50;99.90;15.60;100356.00;;;;4971545;28;92698;-69
2022/06/07 02:34:51;;;;;;;1.25;1.15;;;15.50;99.90;15.60;100348.00;;;;5007003;28;92480;-69
2022/06/07 02:37:18;;;;;;;1.80;1.70;;;15.50;99.90;15.60;100344.00;;;;4955040;28;95291;-69
2022/06/07 02:39:44;;;;;;;1.60;1.40;;;15.50;99.90;15.60;100350.00;;;;5005428;28;92172;-69
2022/06/07 02:42:12;;;;;;;2.17;1.42;;;15.50;99.90;15.60;100343.00;;;;4954201;28;108171;-69
2022/06/07 02:44:39;;;;;;;1.10;1.10;;;15.50;99.90;15.60;100358.00;;;;4972685;28;92068;-69
2022/06/07 02:47:05;;;;;;;1.40;1.23;;;15.50;99.90;15.60;100362.00;;;;5004490;28;91932;-69
2022/06/07 02:49:31;;;;;;;2.17;1.83;;;15.50;99.90;15.50;100354.00;;;;4990088;28;91829;-69
2022/06/07 02:51:57;;;;;;;1.40;1.27;;;15.50;99.90;15.50;100360.00;;;;4990395;28;92536;-68
2022/06/07 02:54:22;;;;;;;1.58;1.48;;;15.40;99.90;15.50;100351.00;;;;4989900;28;93300;-69
2022/06/07 02:56:48;;;;;;;1.67;1.58;;;15.40;99.90;15.50;100351.00;;;;4989031;28;93080;-69
2022/06/07 02:59:14;;;;;;;2.25;1.77;;;15.40;99.90;15.50;100353.00;;;;4989252;28;121475;-69
2022/06/07 03:01:39;;;;;;;2.90;1.50;;;15.40;99.90;15.40;100342.00;;;;5004339;28;108687;-69
2022/06/07 03:04:05;;;;;;;1.83;1.63;;;15.40;99.90;15.40;100333.00;;;;4971668;28;108455;-69
2022/06/07 03:06:31;;;;;;;2.53;1.30;;;15.30;99.90;15.40;100346.00;;;;4988730;28;121861;-69
2022/06/07 03:08:57;;;;;;;1.98;1.83;;;15.30;99.90;15.40;100340.00;;;;4988829;28;99111;-69
2022/06/07 03:11:22;;;;;;;2.55;1.95;;;15.30;99.90;15.40;100347.00;;;;4990296;28;91702;-69
2022/06/07 03:13:48;;;;;;;3.22;1.58;;;15.30;99.90;15.30;100349.00;;;;5003849;28;109041;-69
2022/06/07 03:16:15;;;;;;;2.78;1.65;;;15.30;99.90;15.30;100353.00;;;;4989930;28;92504;-69
2022/06/07 03:18:41;;;;;;;4.03;1.85;;;15.20;99.90;15.30;100357.00;;;;5003822;28;92965;-70
2022/06/07 03:21:22;;;;;;;1.90;1.73;;;15.20;99.90;15.30;100366.00;;;;4989767;28;109409;-69
2022/06/07 03:23:48;;;;;;;2.10;1.60;;;15.20;99.90;15.30;100364.00;;;;4971404;28;92905;-69
2022/06/07 03:26:14;;;;;;;1.77;1.67;;;15.20;99.90;15.30;100358.00;;;;4970282;28;123062;-69
2022/06/07 03:28:41;;;;;;;2.33;1.60;;;15.20;99.90;15.40;100355.00;;;;4988341;28;92049;-69
2022/06/07 03:31:14;;;;;;;1.98;1.77;;;15.30;99.90;15.40;100367.00;;;;4971857;28;92445;-69
2022/06/07 03:33:42;;;;;;;3.15;1.75;;;15.30;99.90;15.50;100363.00;;;;4971829;28;92277;-69
2022/06/07 03:36:13;;;;;;;1.98;1.73;;;15.40;99.90;15.50;100357.00;;;;4974951;28;92262;-69
2022/06/07 03:38:46;;;;;;;1.38;1.17;;;15.40;99.90;15.60;100357.00;;;;5007181;28;92529;-69
2022/06/07 03:41:18;;;;;;;1.75;1.65;;;15.50;99.90;15.60;100358.00;;;;5007905;28;92592;-69
2022/06/07 03:43:44;;;;;;;2.10;1.73;;;15.50;99.90;15.60;100351.00;;;;4991871;28;93133;-69
2022/06/07 03:46:18;;;;;;;3.03;1.42;;;15.50;99.90;15.60;100359.00;;;;4993758;28;92924;-68
2022/06/07 03:48:45;;;;;;;1.50;1.35;;;15.50;99.90;15.60;100361.00;;;;4992322;28;92313;-69
2022/06/07 03:51:14;;;;;;;3.65;1.90;;;15.50;99.90;15.70;100363.00;;;;4999102;28;92435;-69
2022/06/07 03:53:40;;;;;;;2.33;1.98;;;15.50;99.90;15.70;100364.00;;;;4975236;28;92471;-68
2022/06/07 03:56:06;;;;;;;1.27;1.17;;;15.50;99.90;15.70;100372.00;;;;4993047;28;92932;-69
2022/06/07 03:58:33;;;;;;;2.33;1.90;;;15.60;99.90;15.80;100369.00;;;;4991905;28;92589;-69
2022/06/07 04:01:01;;;;;;;2.55;1.80;;;15.60;99.90;15.80;100357.00;;;;4993667;28;99882;-69
2022/06/07 04:03:28;;;;;;;2.63;1.85;;;15.70;99.90;15.90;100368.00;;;;5008274;28;92495;-69
2022/06/07 04:05:55;;;;;;;1.98;1.85;;;15.70;99.90;15.90;100380.00;;;;4992332;28;106953;-69
2022/06/07 04:08:23;;;;;;;2.65;1.67;;;15.80;99.90;16.00;100362.00;;;;4991056;28;93185;-69
2022/06/07 04:10:55;;;;;;;2.40;2.00;;;15.80;99.90;16.10;100367.00;;;;4992756;28;92415;-69
2022/06/07 04:13:24;;;;;;;2.90;2.03;;;15.90;99.90;16.10;100372.00;;;;4987519;28;91987;-70
2022/06/07 04:15:50;;;;;;;2.30;2.10;;;16.00;99.90;16.10;100369.00;;;;4987148;28;113166;-69
2022/06/07 04:18:17;;;;;;;2.78;2.55;;;16.00;99.90;16.20;100361.00;;;;4978452;28;122426;-69
2022/06/07 04:20:42;;;;;;;3.28;2.30;;;16.10;99.90;16.20;100362.00;;;;4974326;28;92029;-69
2022/06/07 04:23:14;;;;;;;4.03;2.10;;;16.10;99.90;16.20;100367.00;;;;5006097;28;107756;-69
2022/06/07 04:25:41;;;;;;;2.63;1.92;;;16.10;99.90;16.30;100366.00;;;;5007952;28;92442;-69
2022/06/07 04:28:08;;;;;;;2.35;1.65;;;16.10;99.90;16.40;100366.00;;;;5007029;28;92809;-69
2022/06/07 04:30:34;;;;;;;1.58;1.48;;;16.20;99.90;16.50;100362.00;;;;4992804;28;92375;-69
2022/06/07 04:32:59;;;;;;;2.60;1.55;;;16.30;99.90;16.60;100366.00;;;;4974702;28;93820;-69
2022/06/07 04:35:26;;;;;;;2.05;1.70;;;16.40;99.90;16.70;100370.00;;;;4973342;28;93628;-69
2022/06/07 04:37:53;;;;;;;2.17;1.98;;;16.50;99.90;16.80;100372.00;;;;4971449;28;108445;-70
2022/06/07 04:40:19;;;;;;;2.28;1.85;;;16.60;99.90;17.00;100367.00;;;;4952495;28;92184;-69
2022/06/07 04:42:51;;;;;;;3.28;2.60;;;16.80;99.90;17.10;100362.00;;;;4983499;28;92747;-69
2022/06/07 04:45:17;;;;;;;2.13;1.85;;;16.90;99.90;17.20;100361.00;;;;4982266;28;122747;-68
2022/06/07 04:47:45;;;;;;;2.03;1.83;;;17.00;99.90;17.30;100356.00;;;;4987274;28;93340;-69
2022/06/07 04:50:19;;;;;;;3.40;2.08;;;17.10;99.90;17.50;100357.00;;;;4986595;28;92031;-69
2022/06/07 04:52:46;;;;;;;1.52;1.40;;;17.30;99.90;17.60;100360.00;;;;4977998;28;92429;-69
2022/06/07 04:55:13;;;;;;;3.08;1.98;;;17.30;99.90;17.70;100352.00;;;;5010008;28;92786;-69
2022/06/07 04:57:39;;;;;;;2.53;1.70;;;17.50;99.90;17.80;100357.00;;;;4953160;28;100432;-69
2022/06/07 05:00:08;;;;;;;2.05;1.77;;;17.60;99.90;17.90;100361.00;;;;4985831;28;97021;-69
2022/06/07 05:02:35;;;;;;;2.45;2.15;;;17.70;99.90;18.00;100364.00;;;;4959990;28;92688;-69
2022/06/07 05:05:09;;;;;;;2.58;2.13;;;17.80;99.90;18.10;100365.00;;;;4982541;28;92467;-69
2022/06/07 05:07:41;;;;;;;2.90;2.13;;;17.90;99.90;18.20;100368.00;;;;4979835;28;115149;-69
2022/06/07 05:10:16;;;;;;;1.88;1.77;;;18.10;99.90;18.40;100371.00;;;;4985820;28;92127;-69
2022/06/07 05:12:41;;;;;;;3.17;2.08;;;18.20;99.90;18.50;100371.00;;;;4961129;28;92541;-69
2022/06/07 05:15:08;;;;;;;1.95;1.75;;;18.30;99.90;18.60;100375.00;;;;4971456;28;93145;-68
2022/06/07 05:17:34;;;;;;;2.42;1.90;;;18.40;99.90;18.60;100376.00;;;;4971353;28;92579;-69
2022/06/07 05:19:59;;;;;;;3.58;1.88;;;18.40;99.90;18.70;100375.00;;;;4971774;28;92522;-68
2022/06/07 05:22:27;;;;;;;2.10;1.58;;;18.50;99.90;18.70;100372.00;;;;4950425;28;93138;-68
2022/06/07 05:24:52;;;;;;;2.40;1.90;;;18.50;99.90;18.80;100379.00;;;;4941878;28;94777;-67
2022/06/07 05:27:22;;;;;;;1.38;1.27;;;18.60;99.90;18.80;100379.00;;;;4971296;28;120696;-68
2022/06/07 05:29:55;;;;;;;1.75;1.65;;;18.60;99.90;18.90;100382.00;;;;4973053;28;92220;-68
2022/06/07 05:32:21;;;;;;;5.15;1.75;;;18.70;99.90;19.00;100374.00;;;;4991744;28;92862;-68
2022/06/07 05:34:47;;;;;;;2.28;1.90;;;18.80;99.90;19.10;100379.00;;;;4990810;28;93527;-68
2022/06/07 05:37:17;;;;;;;2.67;1.80;;;18.80;99.90;19.10;100373.00;;;;4991858;28;92262;-68
2022/06/07 05:39:55;;;;;;;1.70;1.33;;;18.90;99.90;19.20;100364.00;;;;4990399;28;100641;-68
2022/06/07 05:42:21;;;;;;;2.47;1.50;;;19.00;99.90;19.40;100371.00;;;;4991092;28;92835;-68
2022/06/07 05:44:47;;;;;;;1.65;1.50;;;19.20;99.90;19.60;100371.00;;;;4971579;28;119901;-68
2022/06/07 05:47:12;;;;;;;1.85;1.48;;;19.30;99.90;19.80;100369.00;;;;4990494;28;100648;-68
2022/06/07 05:49:38;;;;;;;1.52;1.33;;;19.50;99.90;20.10;100373.00;;;;4990521;28;92501;-69
2022/06/07 05:52:04;;;;;;;4.25;2.20;;;19.80;99.90;20.30;100383.00;;;;5001033;28;107873;-70
2022/06/07 05:54:32;;;;;;;1.90;1.65;;;20.00;99.90;20.50;100385.00;;;;5005675;28;93130;-68
2022/06/07 05:56:58;;;;;;;2.88;1.77;;;20.20;99.90;20.60;100394.00;;;;4989773;28;108250;-69
2022/06/07 05:59:24;;;;;;;0.98;0.98;;;20.30;99.90;20.60;100394.00;;;;4955710;28;92339;-68
2022/06/07 06:01:50;;;;;;;1.40;1.30;;;20.40;99.90;20.70;100401.00;;;;5006881;28;92434;-68
2022/06/07 06:04:15;;;;;;;1.67;1.35;;;20.40;99.90;20.70;100401.00;;;;4990573;28;93114;-68
2022/06/07 06:06:41;;;;;;;2.15;1.23;;;20.50;99.90;20.70;100398.00;;;;4991549;28;93006;-69
2022/06/07 06:11:52;;;;;;;1.27;1.02;;;20.50;99.90;20.70;100397.00;;;;4988395;28;93510;-68
2022/06/07 06:14:22;;;;;;;1.25;1.02;;;20.50;99.90;20.70;100407.00;;;;4988820;28;121421;-68
2022/06/07 06:16:48;;;;;;;1.80;1.40;;;20.50;99.90;20.70;100400.00;;;;4990928;28;93297;-68
2022/06/07 06:19:14;;;;;;;2.55;1.40;;;20.50;99.90;20.70;100405.00;;;;4989555;28;92727;-69
2022/06/07 06:21:43;;;;;;;2.70;1.45;;;20.50;99.90;20.60;100395.00;;;;4971987;28;107814;-68
2022/06/07 06:24:11;;;;;;;1.70;1.38;;;20.50;99.90;20.60;100396.00;;;;4989905;28;93126;-68
2022/06/07 06:26:38;;;;;;;2.75;1.40;;;20.40;99.90;20.60;100399.00;;;;4990248;28;102723;-69
2022/06/07 06:29:05;;;;;;;1.40;1.20;;;20.40;99.90;20.60;100410.00;;;;4972330;28;92006;-69
2022/06/07 06:31:31;;;;;;;1.40;1.30;;;20.40;99.90;20.50;100416.00;;;;5005035;28;92277;-68
2022/06/07 06:33:57;;;;;;;1.25;1.15;;;20.30;99.90;20.40;100403.00;;;;4990200;28;93048;-68
2022/06/07 06:36:26;;;;;;;1.48;1.10;;;20.30;99.90;20.40;100406.00;;;;4989488;28;111733;-69
2022/06/07 06:38:53;;;;;;;2.55;1.00;;;20.20;99.90;20.40;100406.00;;;;4989888;28;91976;-68
2022/06/07 06:41:22;;;;;;;1.30;1.20;;;20.20;99.90;20.40;100411.00;;;;5005571;28;91974;-68
2022/06/07 06:43:49;;;;;;;2.72;1.05;;;20.20;99.90;20.30;100413.00;;;;4988589;28;110489;-69
2022/06/07 06:46:23;;;;;;;1.60;1.10;;;20.20;99.90;20.20;100413.00;;;;5005558;28;92503;-68
2022/06/07 06:48:49;;;;;;;1.52;1.17;;;20.10;99.90;20.10;100423.00;;;;5005761;28;92825;-69
2022/06/07 06:51:19;;;;;;;1.95;1.77;;;20.00;99.90;20.00;100410.00;;;;4988718;28;92746;-67
2022/06/07 06:53:46;;;;;;;1.42;1.30;;;19.90;99.90;19.90;100403.00;;;;4989985;28;91954;-69
2022/06/07 06:56:14;;;;;;;1.75;1.35;;;19.70;99.90;19.70;100399.00;;;;4990235;28;92958;-69
2022/06/07 06:58:40;;;;;;;1.90;1.40;;;19.60;99.90;19.60;100399.00;;;;5005037;28;92495;-69
2022/06/07 07:01:17;;;;;;;1.98;1.45;;;19.50;99.90;19.50;100410.00;;;;4971842;28;92916;-67
2022/06/07 07:03:44;;;;;;;2.03;1.83;;;19.40;99.90;19.40;100403.00;;;;5005346;28;93039;-67
2022/06/07 07:06:12;;;;;;;2.35;1.58;;;19.30;99.90;19.40;100411.00;;;;4971898;28;93289;-68
2022/06/07 07:08:40;;;;;;;1.73;1.40;;;19.20;99.90;19.30;100414.00;;;;4988607;28;100691;-69
2022/06/07 07:11:15;;;;;;;1.27;1.17;;;19.20;99.90;19.20;100412.00;;;;5005453;28;92392;-69
2022/06/07 07:13:42;;;;;;;1.23;1.13;;;19.10;99.90;19.20;100408.00;;;;4989241;28;92463;-68
2022/06/07 07:16:13;;;;;;;2.40;1.25;;;19.00;99.90;19.10;100420.00;;;;4990439;28;93048;-68
2022/06/07 07:18:39;;;;;;;1.30;1.15;;;19.00;99.90;19.00;100424.00;;;;4989879;28;91124;-68
2022/06/07 07:21:14;;;;;;;1.38;1.27;;;18.90;99.90;19.00;100427.00;;;;4972086;28;99038;-69
2022/06/07 07:23:40;;;;;;;1.42;1.30;;;18.80;99.90;18.90;100422.00;;;;4954916;28;94461;-68
2022/06/07 07:26:10;;;;;;;2.90;1.20;;;18.80;99.90;18.80;100415.00;;;;4971364;28;92932;-68
2022/06/07 07:28:38;;;;;;;1.38;1.20;;;18.70;99.90;18.80;100441.00;;;;4989114;28;105112;-69
2022/06/07 07:31:08;;;;;;;1.25;1.15;;;18.70;99.90;18.70;100436.00;;;;5005095;28;92695;-69
2022/06/07 07:33:34;;;;;;;1.63;1.00;;;18.60;99.90;18.50;100438.00;;;;4972224;28;94084;-68
2022/06/07 07:36:03;;;;;;;2.15;1.60;;;18.50;99.90;18.10;100429.00;;;;4970906;28;119936;-70
2022/06/07 07:38:28;;;;;;;2.33;1.58;;;18.20;99.90;17.80;100435.00;;;;5003969;28;92942;-71
2022/06/07 07:40:54;;;;;;;4.57;2.33;;;17.80;99.90;17.50;100441.00;;;;4988814;28;107615;-69
2022/06/07 07:43:20;;;;;;;2.80;2.35;;;17.50;99.90;17.30;100441.00;;;;4988529;28;121562;-69
2022/06/07 07:45:51;;;;;;;1.67;1.58;;;17.40;99.90;17.10;100433.00;;;;4989822;28;101980;-69
2022/06/07 07:48:18;;;;;;;3.20;1.98;;;17.20;99.90;17.00;100437.00;;;;5004387;28;92626;-67
2022/06/07 07:50:44;;;;;;;3.85;1.88;;;17.00;99.90;16.90;100434.00;;;;4995904;28;93756;-68
2022/06/07 07:53:10;;;;;;;1.45;1.35;;;16.90;99.90;16.80;100436.00;;;;4997758;28;92708;-68
2022/06/07 07:55:45;;;;;;;3.78;2.30;;;16.80;99.90;16.80;100435.00;;;;4989913;28;92360;-68
2022/06/07 07:58:12;;;;;;;1.42;1.33;;;16.70;99.90;16.80;100431.00;;;;4986838;28;92233;-68
2022/06/07 08:00:48;;;;;;;2.95;2.40;;;16.70;99.90;16.70;100428.00;;;;4987560;28;92532;-68
2022/06/07 08:03:15;;;;;;;5.05;1.40;;;16.60;99.90;16.70;100425.00;;;;5003646;28;100267;-67
2022/06/07 08:05:40;;;;;;;2.30;1.55;;;16.60;99.90;16.70;100417.00;;;;4989027;28;101066;-68
2022/06/07 08:08:07;;;;;;;4.82;1.40;;;16.60;99.90;16.80;100424.00;;;;4990060;28;91319;-68
2022/06/07 08:10:33;;;;;;;2.20;1.75;;;16.60;99.90;16.90;100419.00;;;;4988113;28;101446;-67
2022/06/07 08:13:01;;;;;;;2.25;1.80;;;16.70;99.90;17.00;100420.00;;;;4988529;28;93037;-67
2022/06/07 08:15:31;;;;;;;2.17;1.50;;;16.80;99.90;17.10;100408.00;;;;4988364;28;93285;-67
2022/06/07 08:17:57;;;;;;;3.45;1.92;;;16.90;99.90;17.30;100407.00;;;;4989080;28;92288;-67
2022/06/07 08:20:24;;;;;;;2.55;2.20;;;17.10;99.90;17.50;100410.00;;;;4989417;28;92317;-67
2022/06/07 08:22:50;;;;;;;1.60;1.50;;;17.30;99.90;17.80;100418.00;;;;4992580;28;93786;-68
2022/06/07 08:25:17;;;;;;;1.83;1.60;;;17.50;99.90;18.10;100421.00;;;;4973232;28;123128;-67
2022/06/07 08:27:43;;;;;;;2.30;1.92;;;17.70;99.90;18.20;100419.00;;;;4976429;28;92311;-67
2022/06/07 08:30:28;;;;;;;3.53;2.00;;;18.00;99.90;18.40;100418.00;;;;4989496;28;108858;-67
2022/06/07 08:32:54;;;;;;;2.92;1.95;;;18.10;99.90;18.50;100427.00;;;;4973324;28;91962;-67
2022/06/07 08:38:05;;;;;;;4.82;1.67;;;18.40;99.90;18.80;100414.00;;;;4990615;28;93281;-68
2022/06/07 08:40:37;;;;;;;2.97;1.95;;;18.50;99.90;18.80;100404.00;;;;4991919;28;93598;-67
2022/06/07 08:43:17;;;;;;;1.70;1.50;;;18.60;99.90;18.90;100406.00;;;;4991801;28;92654;-68
2022/06/07 08:45:45;;;;;;;2.15;1.58;;;18.70;99.90;19.00;100402.00;;;;4992532;28;93720;-68
2022/06/07 08:48:19;;;;;;;2.33;2.13;;;18.80;99.90;19.20;100397.00;;;;4991807;28;92639;-67
2022/06/07 08:51:05;;;;;;;1.73;1.42;;;18.90;99.90;19.40;100404.00;;;;4979466;28;98629;-67
2022/06/07 08:53:37;;;;;;;5.00;2.00;;;19.10;99.90;19.60;100403.00;;;;4995679;28;93875;-67
2022/06/07 08:56:16;;;;;;;2.90;1.95;;;19.30;99.90;19.80;100391.00;;;;4973378;28;115062;-67
2022/06/07 08:58:47;;;;;;;2.00;1.80;;;19.40;99.90;20.00;100388.00;;;;4992010;28;91609;-67
2022/06/07 09:01:41;;;;;;;1.75;1.60;;;19.70;99.90;20.20;100392.00;;;;4992391;28;92737;-66
2022/06/07 09:04:29;;;;;;;1.85;1.75;;;19.90;99.90;20.40;100381.00;;;;5006925;28;92412;-67
2022/06/07 09:07:17;;;;;;;2.25;2.00;;;20.00;99.90;20.50;100376.00;;;;4986363;28;93326;-69
2022/06/07 09:12:35;;;;;;;1.92;1.80;;;20.40;99.90;21.10;100380.00;;;;4984791;28;92450;-69
2022/06/07 09:15:09;;;;;;;1.98;1.70;;;20.70;99.90;21.30;100373.00;;;;4989888;28;92772;-69
2022/06/07 09:17:51;;;;;;;1.80;1.60;;;20.90;99.90;21.60;100371.00;;;;4973048;28;92933;-68
2022/06/07 09:20:41;;;;;;;1.60;1.35;;;21.20;99.90;22.00;100383.00;;;;4991784;28;92359;-69
2022/06/07 09:23:48;;;;;;;1.63;1.52;;;21.50;99.90;22.20;100374.00;;;;5006700;28;92311;-68
2022/06/07 09:26:17;;;;;;;2.55;1.95;;;21.80;99.90;22.40;100372.00;;;;4991678;28;92766;-68
2022/06/07 09:28:49;;;;;;;1.40;1.30;;;22.10;99.90;22.50;100376.00;;;;4989664;28;107612;-68
2022/06/07 09:31:20;;;;;;;2.30;1.40;;;22.20;99.90;22.60;100367.00;;;;4991776;28;92444;-68
2022/06/07 09:33:56;;;;;;;2.13;1.77;;;22.30;99.90;22.70;100369.00;;;;4989640;28;96152;-69
2022/06/07 09:36:33;;;;;;;2.67;1.40;;;22.40;99.90;22.70;100370.00;;;;4991925;28;92666;-68
2022/06/07 09:39:06;;;;;;;1.85;1.52;;;22.40;99.90;22.80;100368.00;;;;4990789;28;91965;-68
2022/06/07 09:41:40;;;;;;;2.05;1.45;;;22.50;99.90;22.80;100363.00;;;;4990764;28;92477;-69
2022/06/07 09:44:36;;;;;;;2.00;1.38;;;22.50;99.90;22.70;100362.00;;;;5007164;28;91921;-69
2022/06/07 09:47:19;;;;;;;1.83;1.25;;;22.50;99.90;22.70;100362.00;;;;5006044;28;93998;-68
2022/06/07 09:49:56;;;;;;;2.30;1.35;;;22.50;99.90;22.80;100366.00;;;;4989695;28;93473;-69
2022/06/07 09:52:52;;;;;;;1.95;1.75;;;22.50;99.90;22.90;100372.00;;;;5006515;28;91456;-68
2022/06/07 09:55:36;;;;;;;2.15;1.35;;;22.60;99.90;23.00;100367.00;;;;4972143;28;92485;-68
2022/06/07 09:58:57;;;;;;;1.98;1.30;;;22.70;99.90;23.10;100369.00;;;;4990471;28;92389;-68
2022/06/07 10:01:39;;;;;;;2.38;1.67;;;22.80;99.90;23.30;100364.00;;;;4971032;28;112451;-68
2022/06/07 10:04:34;;;;;;;1.55;1.20;;;22.90;99.90;23.50;100371.00;;;;4972547;28;102416;-68
2022/06/07 10:07:08;;;;;;;1.13;1.02;;;23.10;99.90;23.60;100363.00;;;;4973878;28;92019;-68
2022/06/07 10:10:21;;;;;;;1.70;1.60;;;23.20;99.90;23.70;100369.00;;;;4971870;28;98747;-68
2022/06/07 10:13:24;;;;;;;2.67;0.98;;;23.30;99.70;23.60;100367.00;;;;4930760;28;115295;-68
2022/06/07 10:16:25;;;;;;;1.40;1.13;;;23.30;99.20;23.60;100369.00;;;;5006272;28;92042;-68
2022/06/07 10:18:57;;;;;;;1.80;1.70;;;23.30;98.80;23.60;100361.00;;;;4989830;28;91951;-68
2022/06/07 10:21:41;;;;;;;0.65;0.63;;;23.30;97.90;23.60;100361.00;;;;4991052;28;92460;-68
2022/06/07 10:24:42;;;;;;;2.90;1.35;;;23.40;97.10;23.60;100364.00;;;;4971926;28;92338;-67
2022/06/07 10:27:23;;;;;;;1.13;1.02;;;23.40;96.50;23.60;100372.00;;;;5006253;28;92266;-69
2022/06/07 10:30:08;;;;;;;2.50;1.35;;;23.30;96.00;23.50;100362.00;;;;5005708;28;93159;-67
2022/06/07 10:33:06;;;;;;;1.25;1.00;;;23.30;95.20;23.50;100369.00;;;;5005164;28;93530;-68
2022/06/07 10:35:58;;;;;;;1.73;1.08;;;23.30;94.50;23.50;100364.00;;;;4989536;28;93348;-68
2022/06/07 10:38:53;;;;;;;2.05;1.17;;;23.30;94.30;23.50;100371.00;;;;4991046;28;93225;-68
2022/06/07 10:41:59;;;;;;;5.82;1.48;;;23.30;94.00;23.50;100370.00;;;;5005213;28;92079;-69
2022/06/07 10:44:34;;;;;;;1.20;0.82;;;23.30;93.70;23.50;100376.00;;;;4989978;28;92661;-69
2022/06/07 10:47:34;;;;;;;2.58;1.42;;;23.30;93.10;23.30;100364.00;;;;4952905;28;116699;-68
2022/06/07 10:50:43;;;;;;;0.77;0.75;;;23.20;92.80;23.30;100374.00;;;;4954000;28;92095;-67
2022/06/07 10:53:23;;;;;;;1.25;1.13;;;23.10;92.50;23.10;100371.00;;;;4972756;28;92349;-68
2022/06/07 10:56:03;;;;;;;0.93;0.88;;;23.00;91.90;23.10;100364.00;;;;4971127;28;112938;-69
2022/06/07 10:58:48;;;;;;;0.98;0.70;;;22.90;92.00;23.10;100368.00;;;;4988390;28;93378;-68
2022/06/07 11:01:35;;;;;;;1.55;0.95;;;22.90;91.90;23.10;100375.00;;;;4966720;28;92659;-68
2022/06/07 11:10:14;;;;;;;0.80;0.80;;;22.90;90.70;23.00;100372.00;;;;4966200;28;92671;-68
2022/06/07 11:13:17;;;;;;;3.88;1.00;;;22.80;90.20;22.90;100369.00;;;;4982997;28;92446;-69
2022/06/07 11:16:04;;;;;;;1.52;0.73;;;22.80;89.10;22.80;100373.00;;;;4984199;28;92213;-69
2022/06/07 11:18:30;;;;;;;0.80;0.80;;;22.60;88.50;22.70;100377.00;;;;4974562;28;92021;-69
2022/06/07 11:21:02;;;;;;;1.27;0.85;;;22.50;89.10;22.50;100372.00;;;;4973435;28;120945;-68